• Join FlightAware (Why Join?)
  • Login
  • US Flag 
02:01PM EDT


 

Airport Tracker/Info


-or-


 

Live Flight TrackerFlight Track Log ✈ JZA8193 ✈ 09-Jun-2013 ✈ CYKA - CYVR

Flight Track Log - Related Links

Times and Time Zones

All times are in EDT time to prevent confusion due to time zone crossing. See the JZA8193 flight status page for this flight to view local times or setup timezone preferences in your user account.

Time Position Orientation Groundspeed Altitude Reporting Facility
EDT Latitude Longitude Course Direction KTS MPH feet Rate Location/Type
02:45PM 50.7000 -120.5333 225° Southwest 130 150 3,800  Level Vancouver Center
02:46PM 50.7167 -120.5833 298° West 140 161 5,100 1,320 Climbing Vancouver Center
02:47PM 50.7000 -120.6333 242° Southwest 140 161 6,500 1,380 Climbing Vancouver Center
02:48PM 50.6667 -120.6833 224° Southwest 150 173 7,900 1,440 Climbing Vancouver Center
02:49PM 50.6333 -120.7167 212° Southwest 160 184 9,400 1,440 Climbing Vancouver Center
02:50PM 50.3832 -120.8861 225° Southwest  Level FlightAware Approximate
02:50PM 50.6000 -120.7667 224° Southwest 160 184 10,800  Level Vancouver Center
02:51PM 50.5500 -120.8333 220° Southwest 170 196 11,800 600 Climbing Vancouver Center
02:52PM 50.5167 -120.8500 198° South 200 230 12,000 300 Climbing Vancouver Center
02:53PM 50.4667 -120.9333 227° Southwest 230 265 12,400 660 Climbing Vancouver Center
02:54PM 50.4167 -121.0000 220° Southwest 220 253 13,400 780 Climbing Vancouver Center
02:55PM 50.3667 -121.0500 213° Southwest 210 242 14,000 240 Climbing Vancouver Center
02:56PM 50.3333 -121.1000 224° Southwest 230 265 13,900 -60 Descending Vancouver Center
02:57PM 50.2667 -121.1833 219° Southwest 250 288 13,900  Level Vancouver Center
02:58PM 50.2167 -121.2500 220° Southwest 250 288 13,900  Level Vancouver Center
02:59PM 50.1500 -121.3000 206° Southwest 260 299 13,900 60 Level Vancouver Center
03:00PM 50.1000 -121.3833 227° Southwest 260 299 14,100 60 Climbing Vancouver Center
03:01PM 50.0333 -121.4333 206° Southwest 260 299 14,100  Level Vancouver Center
03:02PM 49.9833 -121.4833 213° Southwest 250 288 14,100  Level Vancouver Center
03:03PM 49.9167 -121.5667 219° Southwest 250 288 14,100  Level Vancouver Center
03:04PM 49.8667 -121.6167 213° Southwest 250 288 14,100  Level Vancouver Center
03:05PM 49.8000 -121.7000 219° Southwest 250 288 14,100  Level Vancouver Center
03:06PM 49.7500 -121.7500 213° Southwest 250 288 14,100 -60 Level Vancouver Center
03:07PM 49.6833 -121.8167 213° Southwest 260 299 14,000 -60 Descending Vancouver Center
03:08PM 49.6167 -121.8333 189° South 250 288 14,000  Level Vancouver Center
03:09PM 49.5500 -121.9000 213° Southwest 250 288 14,000  Level Vancouver Center
03:10PM 49.5000 -121.9500 213° Southwest 250 288 14,000  Level Vancouver Center
03:11PM 49.4833 -122.0500 256° West 240 276 14,000  Level Vancouver Center
03:12PM 49.4500 -122.1500 243° Southwest 240 276 14,000  Level Vancouver Center
03:13PM 49.4333 -122.2333 253° West 240 276 14,000  Level Vancouver Center
03:14PM 49.4000 -122.3333 243° Southwest 240 276 14,000  Level Vancouver Center
03:15PM 49.3833 -122.4167 253° West 240 276 14,000 -600 Level Vancouver Center
03:16PM 49.3667 -122.5167 256° West 250 288 12,900 -1,200 Descending Vancouver Center
03:17PM 49.3667 -122.6500 270° West 250 288 11,600 -1,260 Descending Vancouver Center
03:18PM 49.3500 -122.7500 256° West 250 288 10,400 -1,260 Descending Vancouver Center
03:19PM 49.3500 -122.8500 270° West 260 299 9,100 -1,260 Descending Vancouver Center
03:20PM 49.3333 -122.9833 259° West 260 299 7,900 -1,140 Descending Vancouver Center
03:21PM 49.2833 -123.0000 192° South 220 253 6,900 -960 Descending Vancouver Center
03:22PM 49.2333 -122.9500 147° Southeast 220 253 6,000 -900 Descending Vancouver Center
03:23PM 49.2167 -122.8500 104° East 230 265 5,100 -1,140 Descending Vancouver Center
03:24PM 49.1667 -122.8333 168° South 230 265 3,800 -1,080 Descending Vancouver Center
03:25PM 49.1500 -122.9000 249° West 210 242 3,000 -780 Descending Vancouver Center
03:26PM 49.1667 -122.9833 287° West 200 230 2,300 -780 Descending Vancouver Center
03:27PM 49.1667 -123.0667 270° West 180 207 1,500 -780 Descending Vancouver Center
03:28PM 49.1667 -123.1167 270° West 130 150 800 -660 Descending Vancouver Center
03:29PM 49.1833 -123.1667 297° West 110 127 200 -600 Descending Vancouver Center